Time;durP1;ratioP1;P1;durP2;ratioP2;P2;SDS_P1;SDS_P2;PMS_P1;PMS_P2;Temp;Humidity;BMP_temperature;BMP_pressure;BME280_temperature;BME280_humidity;BME280_pressure;Samples;Min_cycle;Max_cycle;Signal;HPM_P1;HPM_P2
2022/07/14 00:00:23;;;;;;;11.10;5.63;;;;;;;17.91;100.00;99535.75;5096577;28;20432;-74
2022/07/14 00:03:06;;;;;;;10.23;5.25;;;;;;;17.93;100.00;99537.34;5097781;28;20123;-74
2022/07/14 00:05:35;;;;;;;11.60;5.50;;;;;;;17.96;100.00;99537.06;5113781;28;20048;-74
2022/07/14 00:08:03;;;;;;;13.00;5.97;;;;;;;17.95;100.00;99545.44;5100075;28;20040;-75
2022/07/14 00:10:30;;;;;;;11.82;5.45;;;;;;;17.95;100.00;99540.81;5095914;28;20048;-73
2022/07/14 00:12:58;;;;;;;11.75;5.43;;;;;;;18.01;100.00;99544.00;5095882;28;20117;-74
2022/07/14 00:15:25;;;;;;;11.40;5.30;;;;;;;18.01;100.00;99544.00;5095956;28;20048;-74
2022/07/14 00:17:55;;;;;;;10.18;5.10;;;;;;;18.00;100.00;99543.13;5096086;28;20044;-74
2022/07/14 00:20:24;;;;;;;13.65;5.07;;;;;;;18.03;100.00;99552.91;5095351;28;20123;-74
2022/07/14 00:22:52;;;;;;;11.18;5.90;;;;;;;18.00;100.00;99556.78;5094528;28;20547;-74
2022/07/14 00:25:19;;;;;;;9.45;5.28;;;;;;;18.03;100.00;99548.34;5096002;28;20044;-73
2022/07/14 00:27:46;;;;;;;9.77;5.35;;;;;;;17.98;100.00;99538.78;5095634;28;20051;-74
2022/07/14 00:30:14;;;;;;;10.55;5.40;;;;;;;18.01;100.00;99538.53;5095337;28;20051;-74
2022/07/14 00:32:41;;;;;;;11.30;5.32;;;;;;;17.98;100.00;99541.53;5095795;28;20098;-74
2022/07/14 00:35:10;;;;;;;10.65;5.63;;;;;;;17.95;100.00;99540.81;5095762;28;20450;-74
2022/07/14 00:37:39;;;;;;;10.55;5.65;;;;;;;17.94;100.00;99539.06;5095638;28;20048;-74
2022/07/14 00:40:08;;;;;;;11.90;5.65;;;;;;;17.92;100.00;99546.56;5095597;28;20040;-75
2022/07/14 00:42:37;;;;;;;11.50;5.80;;;;;;;17.88;100.00;99542.38;5095145;28;20044;-74
2022/07/14 00:45:07;;;;;;;10.07;5.28;;;;;;;17.83;100.00;99538.34;5095272;28;20048;-74
2022/07/14 00:47:35;;;;;;;10.00;5.32;;;;;;;17.76;100.00;99544.38;5095498;28;20048;-74
2022/07/14 00:50:03;;;;;;;10.88;5.32;;;;;;;17.60;100.00;99535.84;5095206;28;20052;-74
2022/07/14 00:52:30;;;;;;;9.75;5.30;;;;;;;17.61;100.00;99522.03;5095382;28;20481;-74
2022/07/14 00:54:59;;;;;;;10.60;5.53;;;;;;;17.65;100.00;99522.66;5095381;28;20093;-74
2022/07/14 00:57:27;;;;;;;9.80;5.38;;;;;;;17.65;100.00;99523.50;5094991;28;20044;-75
2022/07/14 00:59:56;;;;;;;11.75;5.93;;;;;;;17.51;100.00;99519.28;5095302;28;20044;-74
2022/07/14 01:02:23;;;;;;;12.73;5.40;;;;;;;17.47;100.00;99527.91;5094883;28;20040;-75
2022/07/14 01:04:51;;;;;;;12.07;5.90;;;;;;;17.42;100.00;99527.47;5095102;28;20489;-74
2022/07/14 01:07:20;;;;;;;11.15;5.60;;;;;;;17.35;100.00;99530.75;5095125;28;20048;-75
2022/07/14 01:09:48;;;;;;;10.23;5.28;;;;;;;17.34;100.00;99529.03;5094725;28;20051;-75
2022/07/14 01:12:17;;;;;;;10.98;4.95;;;;;;;17.34;100.00;99530.88;5094910;28;20481;-74
2022/07/14 01:14:44;;;;;;;10.15;5.22;;;;;;;17.30;100.00;99523.97;5094799;28;20401;-74
2022/07/14 01:17:12;;;;;;;12.63;5.50;;;;;;;17.25;100.00;99523.53;5093763;28;20051;-74
2022/07/14 01:19:40;;;;;;;9.75;5.20;;;;;;;17.20;100.00;99510.28;5094826;28;20048;-74
2022/07/14 01:22:09;;;;;;;11.00;5.25;;;;;;;17.18;100.00;99507.69;5094789;28;20040;-75
2022/07/14 01:24:36;;;;;;;11.40;5.70;;;;;;;17.15;100.00;99509.81;5094346;28;20508;-74
2022/07/14 01:27:04;;;;;;;9.85;5.55;;;;;;;17.18;100.00;99515.88;5094631;28;20040;-74
2022/07/14 01:29:32;;;;;;;12.00;5.72;;;;;;;17.20;100.00;99513.00;5094767;28;20487;-74
2022/07/14 01:31:59;;;;;;;11.90;5.43;;;;;;;17.13;100.00;99493.56;5094756;28;20047;-74
2022/07/14 01:34:28;;;;;;;17.45;5.90;;;;;;;17.13;100.00;99501.75;5094716;28;20065;-73
2022/07/14 01:36:55;;;;;;;11.52;5.80;;;;;;;17.12;100.00;99489.13;5094736;28;20044;-73
2022/07/14 01:39:24;;;;;;;9.90;5.65;;;;;;;17.07;100.00;99491.41;5094017;28;20069;-74
2022/07/14 01:41:52;;;;;;;10.57;5.25;;;;;;;17.05;100.00;99493.41;5093428;28;20040;-74
2022/07/14 01:44:19;;;;;;;10.77;5.70;;;;;;;16.97;100.00;99495.94;5094367;28;20044;-74
2022/07/14 01:46:47;;;;;;;11.38;5.53;;;;;;;16.94;100.00;99497.94;5094256;28;20055;-74
2022/07/14 01:49:14;;;;;;;10.63;5.20;;;;;;;16.96;100.00;99495.09;5094082;28;20048;-74
2022/07/14 01:51:42;;;;;;;11.25;5.32;;;;;;;16.93;100.00;99490.75;5094812;28;20562;-74
2022/07/14 01:54:09;;;;;;;14.40;5.95;;;;;;;16.93;100.00;99493.47;5094002;28;20048;-73
2022/07/14 01:56:41;;;;;;;10.50;5.70;;;;;;;16.91;100.00;99491.88;5094192;28;20048;-73
2022/07/14 01:59:09;;;;;;;12.05;5.93;;;;;;;16.88;100.00;99483.97;5095423;28;20044;-74
2022/07/14 02:01:43;;;;;;;10.38;5.78;;;;;;;16.86;100.00;99489.56;5094121;28;20052;-74
2022/07/14 02:04:12;;;;;;;11.70;5.40;;;;;;;16.84;100.00;99490.69;5094461;28;20048;-74
2022/07/14 02:06:42;;;;;;;11.48;5.97;;;;;;;16.81;100.00;99489.13;5093952;28;20507;-73
2022/07/14 02:09:10;;;;;;;11.13;5.78;;;;;;;16.77;100.00;99488.50;5093622;28;20040;-73
2022/07/14 02:14:24;;;;;;;9.93;5.47;;;;;;;16.74;100.00;99482.47;5095505;28;20072;-73
2022/07/14 02:16:53;;;;;;;10.93;5.38;;;;;;;16.78;100.00;99475.75;5093498;28;20051;-74
2022/07/14 02:19:20;;;;;;;9.93;5.68;;;;;;;16.82;100.00;99482.66;5093747;28;20504;-74
2022/07/14 02:21:48;;;;;;;13.60;5.95;;;;;;;16.84;100.00;99486.13;5093660;28;20045;-74
2022/07/14 02:24:15;;;;;;;13.02;5.72;;;;;;;16.89;100.00;99485.69;5093346;28;20485;-73
2022/07/14 02:26:43;;;;;;;11.05;6.00;;;;;;;16.86;100.00;99485.97;5093635;28;20044;-73
2022/07/14 02:29:10;;;;;;;10.38;5.65;;;;;;;16.93;100.00;99492.63;5093754;28;20043;-74
2022/07/14 02:31:40;;;;;;;10.80;5.90;;;;;;;16.98;100.00;99487.66;5093621;28;20047;-74
2022/07/14 02:34:07;;;;;;;11.63;5.90;;;;;;;16.95;100.00;99487.91;5093552;28;20062;-74
2022/07/14 02:36:34;;;;;;;13.52;6.18;;;;;;;17.01;100.00;99491.97;5093446;28;20093;-74
2022/07/14 02:39:02;;;;;;;12.23;5.80;;;;;;;16.92;100.00;99496.31;5093162;28;20055;-73
2022/07/14 02:41:29;;;;;;;12.07;6.10;;;;;;;16.89;100.00;99499.31;5093311;28;20382;-74
2022/07/14 02:43:57;;;;;;;14.13;6.10;;;;;;;16.84;100.00;99499.75;5093288;28;20055;-73
2022/07/14 02:46:26;;;;;;;13.10;5.82;;;;;;;16.80;100.00;99493.69;5093626;28;20044;-73
2022/07/14 02:48:54;;;;;;;12.27;6.30;;;;;;;16.74;100.00;99496.97;5093397;28;20040;-74
2022/07/14 02:51:22;;;;;;;10.88;6.30;;;;;;;16.69;100.00;99504.69;5092281;28;20055;-74
2022/07/14 02:53:50;;;;;;;12.52;6.50;;;;;;;16.68;100.00;99492.06;5092319;28;20048;-74
2022/07/14 02:56:17;;;;;;;13.02;6.80;;;;;;;16.67;100.00;99495.78;5092240;28;20044;-73
2022/07/14 02:58:45;;;;;;;13.85;7.30;;;;;;;16.61;100.00;99496.31;5093276;28;20047;-73
2022/07/14 03:01:12;;;;;;;12.02;6.68;;;;;;;16.58;100.00;99499.31;5093096;28;20067;-73
2022/07/14 03:03:40;;;;;;;11.50;6.38;;;;;;;16.51;100.00;99494.38;5093148;28;20040;-73
2022/07/14 03:06:13;;;;;;;14.27;6.50;;;;;;;16.49;100.00;99499.09;5092901;28;20492;-73
2022/07/14 03:08:41;;;;;;;12.07;6.20;;;;;;;16.48;100.00;99500.09;5093980;28;20044;-74
2022/07/14 03:11:09;;;;;;;12.55;6.07;;;;;;;16.49;100.00;99501.81;5093169;28;20577;-74
2022/07/14 03:13:37;;;;;;;12.25;6.10;;;;;;;16.45;100.00;99500.34;5092978;28;20048;-73
2022/07/14 03:16:08;;;;;;;13.23;6.35;;;;;;;16.42;100.00;99503.34;5092943;28;20040;-73
2022/07/14 03:18:35;;;;;;;12.18;5.95;;;;;;;16.40;100.00;99508.06;5094040;28;20044;-74
2022/07/14 03:21:07;;;;;;;11.18;6.35;;;;;;;16.37;100.00;99511.06;5092787;28;20047;-74
2022/07/14 03:23:36;;;;;;;11.65;5.95;;;;;;;16.33;100.00;99515.94;5093112;28;20048;-74
2022/07/14 03:26:04;;;;;;;15.82;7.38;;;;;;;16.32;100.00;99511.47;5092885;28;20122;-73
2022/07/14 03:28:31;;;;;;;13.77;7.55;;;;;;;16.30;100.00;99516.16;5093083;28;20052;-73
2022/07/14 03:30:59;;;;;;;13.18;7.45;;;;;;;16.30;100.00;99527.06;5092971;28;20040;-73
2022/07/14 03:33:26;;;;;;;12.95;6.53;;;;;;;16.32;100.00;99526.94;5092955;28;20059;-74
2022/07/14 03:35:54;;;;;;;12.10;6.05;;;;;;;16.32;100.00;99522.38;5092379;28;20036;-74
2022/07/14 03:38:22;;;;;;;13.32;6.20;;;;;;;16.33;100.00;99534.13;5092928;28;20040;-73
2022/07/14 03:40:50;;;;;;;13.13;7.07;;;;;;;16.40;100.00;99534.47;5092669;28;20050;-73
2022/07/14 03:43:18;;;;;;;13.30;6.68;;;;;;;16.46;100.00;99529.34;5092608;28;20040;-73
2022/07/14 03:45:46;;;;;;;11.98;6.15;;;;;;;16.50;100.00;99532.69;5092655;28;20048;-73
2022/07/14 03:48:13;;;;;;;11.65;6.43;;;;;;;16.49;100.00;99529.06;5092946;28;20408;-73
2022/07/14 03:50:42;;;;;;;12.30;6.40;;;;;;;16.50;100.00;99528.06;5092354;28;20052;-74
2022/07/14 03:53:09;;;;;;;14.07;6.78;;;;;;;16.52;100.00;99525.22;5092758;28;20040;-73
2022/07/14 03:55:37;;;;;;;12.02;6.28;;;;;;;16.58;100.00;99529.31;5092792;28;20526;-73
2022/07/14 03:58:06;;;;;;;11.85;6.75;;;;;;;16.57;100.00;99519.41;5092854;28;20051;-73
2022/07/14 04:00:33;;;;;;;12.63;7.00;;;;;;;16.61;100.00;99527.16;5092517;28;20040;-73
2022/07/14 04:03:01;;;;;;;12.85;6.40;;;;;;;16.65;100.00;99519.59;5092846;28;20048;-74
2022/07/14 04:05:28;;;;;;;12.52;6.20;;;;;;;16.75;100.00;99525.09;5095683;28;20048;-74
2022/07/14 04:07:56;;;;;;;14.77;6.60;;;;;;;16.95;100.00;99531.53;5095975;28;20044;-74
2022/07/14 04:10:23;;;;;;;14.52;6.45;;;;;;;16.99;100.00;99527.56;5094792;28;20043;-74
2022/07/14 04:12:51;;;;;;;11.98;6.60;;;;;;;17.08;100.00;99528.59;5096348;28;20436;-74
2022/07/14 04:15:20;;;;;;;16.05;8.10;;;;;;;17.08;100.00;99524.03;5096149;28;20055;-74
2022/07/14 04:17:48;;;;;;;11.38;6.70;;;;;;;17.20;100.00;99534.84;5095913;28;20044;-74
2022/07/14 04:20:16;;;;;;;13.13;6.65;;;;;;;17.29;100.00;99528.53;5095692;28;20044;-74
2022/07/14 04:22:44;;;;;;;12.77;7.00;;;;;;;17.35;100.00;99529.88;5095959;28;20047;-74
2022/07/14 04:25:12;;;;;;;11.30;6.82;;;;;;;17.37;100.00;99525.13;5096103;28;20052;-74
2022/07/14 04:27:40;;;;;;;14.45;6.72;;;;;;;17.43;100.00;99534.66;5096035;28;20128;-74
2022/07/14 04:30:09;;;;;;;12.25;6.60;;;;;;;17.46;100.00;99539.84;5096032;28;20408;-74
2022/07/14 04:32:38;;;;;;;14.10;7.40;;;;;;;17.53;100.00;99544.56;5095543;28;20101;-75
2022/07/14 04:35:06;;;;;;;12.95;7.00;;;;;;;17.53;100.00;99543.72;5095718;28;20044;-74
2022/07/14 04:37:34;;;;;;;13.00;7.10;;;;;;;17.55;100.00;99547.19;5095702;28;20044;-75
2022/07/14 04:40:01;;;;;;;13.40;7.28;;;;;;;17.55;100.00;99538.16;5092036;28;20414;-73
2022/07/14 04:42:29;;;;;;;10.80;6.95;;;;;;;17.61;100.00;99534.84;5092034;28;20074;-73
2022/07/14 04:44:56;;;;;;;15.38;7.07;;;;;;;17.57;100.00;99514.28;5091623;28;20058;-73
2022/07/14 04:47:24;;;;;;;12.45;6.88;;;;;;;17.53;100.00;99524.63;5091778;28;20044;-73
2022/07/14 04:52:45;;;;;;;11.88;7.00;;;;;;;17.70;100.00;99531.28;5092098;28;20097;-74
2022/07/14 04:55:13;;;;;;;13.15;7.07;;;;;;;17.78;100.00;99536.03;5113429;28;20126;-74
2022/07/14 04:57:41;;;;;;;12.98;7.63;;;;;;;17.77;100.00;99537.06;5111913;28;20656;-73
2022/07/14 05:00:09;;;;;;;12.20;7.65;;;;;;;17.87;100.00;99531.59;5112043;28;20051;-74
2022/07/14 05:02:37;;;;;;;12.55;7.25;;;;;;;17.90;100.00;99539.50;5111813;28;20043;-75
2022/07/14 05:05:07;;;;;;;14.45;7.57;;;;;;;17.93;100.00;99533.75;5112080;27;20489;-74
2022/07/14 05:07:34;;;;;;;11.93;7.10;;;;;;;18.06;100.00;99531.66;5111404;28;20105;-74
2022/07/14 05:10:02;;;;;;;11.13;6.75;;;;;;;18.09;100.00;99534.09;5099871;28;20489;-74
2022/07/14 05:12:30;;;;;;;19.90;12.63;;;;;;;18.11;100.00;99528.47;5094606;28;20036;-74
2022/07/14 05:14:57;;;;;;;12.55;7.72;;;;;;;18.17;100.00;99530.66;5094761;28;20044;-73
2022/07/14 05:17:25;;;;;;;12.50;7.10;;;;;;;18.19;100.00;99542.31;5094691;28;20105;-74
2022/07/14 05:19:53;;;;;;;14.48;7.45;;;;;;;18.20;100.00;99544.03;5094956;28;20055;-74
2022/07/14 05:22:21;;;;;;;14.38;7.72;;;;;;;18.19;100.00;99546.91;5094900;28;20488;-73
2022/07/14 05:24:49;;;;;;;16.02;7.95;;;;;;;18.21;100.00;99545.75;5094692;28;20052;-74
2022/07/14 05:27:16;;;;;;;12.82;7.35;;;;;;;18.28;100.00;99543.31;5094890;28;20044;-74
2022/07/14 05:29:44;;;;;;;15.07;7.82;;;;;;;18.27;100.00;99543.47;5094782;28;20052;-74
2022/07/14 05:32:12;;;;;;;14.75;7.88;;;;;;;18.25;100.00;99551.78;5094401;28;20370;-73
2022/07/14 05:34:44;;;;;;;13.82;6.95;;;;;;;18.37;100.00;99541.59;5094635;28;20052;-73
2022/07/14 05:37:11;;;;;;;11.98;6.72;;;;;;;18.39;100.00;99547.75;5094506;28;20040;-74
2022/07/14 05:39:40;;;;;;;12.07;7.18;;;;;;;18.42;100.00;99546.63;5094706;28;20044;-74
2022/07/14 05:42:08;;;;;;;12.57;7.20;;;;;;;18.49;100.00;99556.81;5094340;28;20621;-74
2022/07/14 05:44:36;;;;;;;11.23;6.80;;;;;;;18.56;100.00;99548.91;5094244;28;20048;-74
2022/07/14 05:47:03;;;;;;;11.52;6.60;;;;;;;18.62;100.00;99545.59;5094330;28;20068;-74
2022/07/14 05:49:31;;;;;;;13.40;6.88;;;;;;;18.64;100.00;99549.03;5094139;28;20063;-73
2022/07/14 05:52:00;;;;;;;14.13;7.32;;;;;;;18.65;100.00;99545.28;5095250;28;20055;-74
2022/07/14 05:54:31;;;;;;;12.95;6.38;;;;;;;18.71;100.00;99540.25;5101544;28;20093;-73
2022/07/14 05:57:00;;;;;;;15.88;6.93;;;;;;;18.68;100.00;99546.88;5114648;28;20040;-74
2022/07/14 05:59:27;;;;;;;13.43;7.03;;;;;;;18.74;100.00;99540.81;5114525;28;20105;-74
2022/07/14 06:01:54;;;;;;;11.63;6.78;;;;;;;18.79;100.00;99535.78;5114038;28;20511;-74
2022/07/14 06:04:22;;;;;;;13.02;6.68;;;;;;;18.88;100.00;99527.69;5114557;27;20040;-73
2022/07/14 06:06:51;;;;;;;12.70;6.40;;;;;;;18.89;100.00;99533.03;5114414;28;20443;-74
2022/07/14 06:09:18;;;;;;;11.50;6.50;;;;;;;18.94;100.00;99529.81;5114350;28;20043;-74
2022/07/14 06:11:46;;;;;;;11.13;6.38;;;;;;;18.97;100.00;99535.03;5114365;28;20047;-74
2022/07/14 06:14:15;;;;;;;10.77;6.50;;;;;;;19.04;100.00;99530.72;5113848;28;20117;-74
2022/07/14 06:16:43;;;;;;;11.43;6.57;;;;;;;19.07;100.00;99535.88;5114202;28;20044;-74
2022/07/14 06:19:10;;;;;;;10.32;6.40;;;;;;;19.10;100.00;99530.13;5112134;28;20055;-74
2022/07/14 06:21:38;;;;;;;11.40;6.43;;;;;;;19.11;100.00;99531.84;5093635;28;20048;-74
2022/07/14 06:24:06;;;;;;;11.88;6.45;;;;;;;19.16;100.00;99528.63;5093833;28;20044;-74
2022/07/14 06:26:35;;;;;;;11.52;6.00;;;;;;;19.19;100.00;99531.09;5092966;28;20448;-74
2022/07/14 06:29:02;;;;;;;11.63;6.40;;;;;;;19.22;100.00;99533.53;5093443;28;20540;-75
2022/07/14 06:31:34;;;;;;;11.18;6.00;;;;;;;19.26;100.00;99531.34;5093730;28;20044;-74
2022/07/14 06:34:02;;;;;;;11.75;5.90;;;;;;;19.29;100.00;99533.78;5094018;28;20040;-74
2022/07/14 06:36:29;;;;;;;10.63;6.07;;;;;;;19.31;100.00;99530.91;5093565;28;20052;-74
2022/07/14 06:38:57;;;;;;;9.90;5.82;;;;;;;19.33;100.00;99531.59;5093622;28;20477;-74
2022/07/14 06:41:25;;;;;;;11.90;6.10;;;;;;;19.40;100.00;99541.81;5093279;28;20051;-74
2022/07/14 06:43:53;;;;;;;11.02;5.80;;;;;;;19.49;100.00;99536.44;5092910;28;20405;-73
2022/07/14 06:46:20;;;;;;;11.18;5.80;;;;;;;19.49;100.00;99528.22;5093462;28;20505;-74
2022/07/14 06:48:49;;;;;;;10.63;5.88;;;;;;;19.56;100.00;99540.28;5093461;28;20051;-74
2022/07/14 06:51:16;;;;;;;9.82;5.68;;;;;;;19.64;99.42;99542.28;5093054;28;20066;-75
2022/07/14 06:53:44;;;;;;;9.57;5.38;;;;;;;19.63;99.54;99546.88;5093375;28;20047;-75
2022/07/14 06:56:12;;;;;;;11.63;5.78;;;;;;;19.72;99.20;99549.72;5110992;28;20101;-75
2022/07/14 06:58:40;;;;;;;12.05;6.30;;;;;;;19.75;98.36;99543.91;5113297;28;20071;-74
2022/07/14 07:01:07;;;;;;;10.20;5.70;;;;;;;19.75;97.82;99543.91;5113551;28;20485;-74
2022/07/14 07:03:35;;;;;;;12.43;5.78;;;;;;;19.74;98.80;99547.69;5113553;28;20100;-74
2022/07/14 07:08:49;;;;;;;11.40;5.82;;;;;;;19.93;97.50;99542.13;5113894;28;20545;-75
2022/07/14 07:11:16;;;;;;;10.35;5.72;;;;;;;19.97;97.18;99543.53;5113548;28;20047;-74
2022/07/14 07:13:44;;;;;;;13.40;5.25;;;;;;;20.02;96.96;99533.97;5113351;28;20058;-74
2022/07/14 07:16:12;;;;;;;14.23;6.07;;;;;;;20.09;95.64;99543.31;5110530;28;20047;-73
2022/07/14 07:18:39;;;;;;;13.85;6.07;;;;;;;20.02;96.53;99545.81;5109909;28;20048;-73
2022/07/14 07:21:10;;;;;;;12.25;5.72;;;;;;;20.12;96.10;99535.63;5096410;28;20047;-73
2022/07/14 07:23:41;;;;;;;18.10;5.88;;;;;;;20.11;96.19;99539.41;5091416;28;20409;-73
2022/07/14 07:26:09;;;;;;;10.38;5.32;;;;;;;20.14;97.36;99540.09;5089391;28;20135;-73
2022/07/14 07:28:36;;;;;;;13.30;5.35;;;;;;;20.21;95.78;99544.81;5089165;28;20457;-73
2022/07/14 07:31:04;;;;;;;9.55;5.15;;;;;;;20.22;95.84;99542.91;5089444;28;20047;-73
2022/07/14 07:33:32;;;;;;;8.82;5.30;;;;;;;20.22;96.17;99532.84;5089102;28;20595;-73
2022/07/14 07:36:00;;;;;;;12.45;5.20;;;;;;;20.35;93.87;99540.63;5089228;28;20097;-73
2022/07/14 07:38:29;;;;;;;19.13;4.70;;;;;;;20.41;92.89;99541.91;5089686;28;20374;-73
2022/07/14 07:40:56;;;;;;;9.27;5.10;;;;;;;20.43;90.97;99537.13;5093204;28;20040;-73
2022/07/14 07:43:24;;;;;;;9.73;4.82;;;;;;;20.48;88.92;99537.50;5092494;28;20039;-73
2022/07/14 07:45:51;;;;;;;14.98;4.60;;;;;;;20.53;87.39;99531.56;5092713;28;20055;-72
2022/07/14 07:48:19;;;;;;;8.55;4.30;;;;;;;20.53;87.31;99532.41;5093363;28;20570;-73
2022/07/14 07:50:47;;;;;;;7.88;4.03;;;;;;;20.54;86.76;99520.41;5092964;28;20048;-73
2022/07/14 07:53:14;;;;;;;10.60;4.05;;;;;;;20.52;86.90;99524.34;5093124;28;20499;-73
2022/07/14 07:55:43;;;;;;;10.65;4.75;;;;;;;20.58;87.28;99525.56;5092309;28;20048;-73
2022/07/14 07:58:11;;;;;;;8.55;4.10;;;;;;;20.63;86.70;99524.09;5092708;28;20052;-73
2022/07/14 08:00:38;;;;;;;7.72;3.97;;;;;;;20.67;86.57;99519.16;5092916;28;20052;-73
2022/07/14 08:03:06;;;;;;;9.23;4.10;;;;;;;20.70;86.52;99516.94;5092938;28;20521;-73
2022/07/14 08:05:34;;;;;;;8.65;4.05;;;;;;;20.71;85.86;99520.53;5092568;28;20055;-72
2022/07/14 08:08:02;;;;;;;7.55;4.00;;;;;;;20.69;86.68;99514.38;5094795;28;20511;-73
2022/07/14 08:10:30;;;;;;;7.05;3.70;;;;;;;20.73;85.12;99512.13;5092347;28;20124;-73
2022/07/14 08:12:58;;;;;;;7.03;3.78;;;;;;;20.72;85.46;99511.28;5092875;28;20044;-73
2022/07/14 08:15:26;;;;;;;6.35;3.67;;;;;;;20.84;83.33;99510.03;5092197;28;20047;-72
2022/07/14 08:17:54;;;;;;;7.60;3.85;;;;;;;20.89;83.25;99509.56;5092179;28;20048;-72
2022/07/14 08:20:21;;;;;;;7.03;3.97;;;;;;;20.95;82.04;99510.78;5092284;28;20060;-73
2022/07/14 08:22:49;;;;;;;10.90;4.43;;;;;;;20.96;82.22;99504.25;5092382;28;20101;-73
2022/07/14 08:25:16;;;;;;;9.40;4.00;;;;;;;21.01;83.10;99503.78;5091750;28;20044;-74
2022/07/14 08:27:44;;;;;;;8.73;4.00;;;;;;;21.10;82.40;99508.28;5092524;28;20044;-74
2022/07/14 08:30:14;;;;;;;8.63;3.90;;;;;;;21.10;81.25;99509.16;5092618;28;20052;-72
2022/07/14 08:32:42;;;;;;;7.00;3.78;;;;;;;21.13;81.71;99497.84;5091834;28;20047;-73
2022/07/14 08:35:13;;;;;;;8.80;3.90;;;;;;;21.17;82.27;99501.13;5092543;28;20607;-72
2022/07/14 08:37:41;;;;;;;8.02;3.72;;;;;;;21.22;80.92;99501.50;5094271;28;20098;-72
2022/07/14 08:40:11;;;;;;;8.18;4.07;;;;;;;21.26;81.07;99499.28;5091778;28;20048;-73
2022/07/14 08:42:39;;;;;;;18.70;3.90;;;;;;;21.25;80.46;99492.94;5091950;28;20044;-72
2022/07/14 08:45:09;;;;;;;8.82;3.35;;;;;;;21.32;79.18;99495.88;5091701;28;20048;-72
2022/07/14 08:47:38;;;;;;;9.85;3.22;;;;;;;21.38;76.54;99494.38;5091610;28;20100;-72
2022/07/14 08:50:08;;;;;;;6.90;3.10;;;;;;;21.37;75.95;99490.75;5090929;28;20063;-73
2022/07/14 08:52:36;;;;;;;7.57;3.50;;;;;;;21.42;76.71;99496.63;5091942;28;20475;-73
2022/07/14 08:55:06;;;;;;;7.57;3.47;;;;;;;21.44;76.01;99492.84;5091497;28;20051;-73
2022/07/14 08:57:33;;;;;;;6.95;3.40;;;;;;;21.47;76.61;99493.38;5111385;28;20054;-72
2022/07/14 09:00:01;;;;;;;5.40;3.17;;;;;;;21.37;77.17;99487.16;5112338;28;20408;-71
2022/07/14 09:02:28;;;;;;;6.07;3.30;;;;;;;21.41;78.48;99481.13;5112052;28;20434;-72
2022/07/14 09:04:58;;;;;;;8.65;3.60;;;;;;;21.41;79.42;99485.78;5112094;28;20137;-71
2022/07/14 09:07:33;;;;;;;8.18;3.80;;;;;;;21.43;78.26;99483.75;5113183;27;20084;-71
2022/07/14 09:10:05;;;;;;;6.40;3.38;;;;;;;21.48;79.44;99478.59;5115233;27;20073;-71
2022/07/14 09:12:33;;;;;;;8.23;3.40;;;;;;;21.52;78.53;99488.22;5115452;28;20051;-71
2022/07/14 09:17:53;;;;;;;8.90;3.40;;;;;;;21.55;79.96;99487.03;5103004;28;20051;-72
2022/07/14 09:20:23;;;;;;;6.90;3.08;;;;;;;21.62;80.28;99482.59;5100336;28;20044;-74
2022/07/14 09:22:54;;;;;;;9.60;3.50;;;;;;;21.66;78.61;99477.69;5102605;28;20039;-73
2022/07/14 09:25:22;;;;;;;7.28;3.28;;;;;;;21.74;77.09;99485.06;5101168;28;20412;-72
2022/07/14 09:27:50;;;;;;;6.47;3.33;;;;;;;21.76;75.94;99483.88;5104018;28;20044;-73
2022/07/14 09:30:18;;;;;;;7.60;3.55;;;;;;;21.81;74.72;99475.97;5105236;28;20074;-73
2022/07/14 09:32:48;;;;;;;7.00;3.83;;;;;;;21.87;75.02;99468.97;5103364;28;20048;-74
2022/07/14 09:35:18;;;;;;;9.70;3.38;;;;;;;21.84;75.72;99472.91;5103842;28;20052;-74
2022/07/14 09:37:48;;;;;;;11.20;3.50;;;;;;;21.92;75.12;99482.19;5105113;27;20070;-73
2022/07/14 09:40:22;;;;;;;8.65;4.03;;;;;;;21.95;76.07;99468.09;5105962;28;20100;-80
2022/07/14 09:42:58;;;;;;;7.70;3.63;;;;;;;21.92;76.93;99472.06;5106110;28;20137;-75
2022/07/14 09:45:29;;;;;;;8.52;3.80;;;;;;;21.99;74.77;99475.84;5097601;28;20051;-74
2022/07/14 09:48:02;;;;;;;8.88;3.83;;;;;;;21.97;74.71;99471.53;5094034;28;20075;-73
2022/07/14 09:50:41;;;;;;;11.55;3.35;;;;;;;22.06;72.56;99477.91;5095774;28;20056;-75
2022/07/14 09:53:15;;;;;;;10.32;3.60;;;;;;;22.16;72.60;99489.59;5104061;28;20035;-76
2022/07/14 09:55:46;;;;;;;8.85;3.53;;;;;;;22.26;70.65;99483.94;5102994;28;20051;-73
2022/07/14 09:58:16;;;;;;;8.25;3.38;;;;;;;22.28;70.34;99474.50;5104237;28;20058;-73
2022/07/14 10:00:44;;;;;;;9.50;3.13;;;;;;;22.31;71.08;99469.69;5102295;28;20044;-73
2022/07/14 10:03:11;;;;;;;7.53;3.50;;;;;;;22.39;71.32;99481.53;5101887;28;20040;-74
2022/07/14 10:05:39;;;;;;;8.48;3.80;;;;;;;22.46;68.16;99484.50;5103739;28;20039;-72
2022/07/14 10:08:07;;;;;;;6.80;3.50;;;;;;;22.53;67.32;99481.91;5102552;28;20477;-74
2022/07/14 10:10:36;;;;;;;10.77;3.45;;;;;;;22.55;69.94;99485.34;5101891;28;20040;-73
2022/07/14 10:13:05;;;;;;;6.32;3.40;;;;;;;22.62;70.17;99488.25;5100046;28;20401;-73
2022/07/14 10:15:33;;;;;;;6.95;3.08;;;;;;;22.62;68.95;99475.38;5102021;28;20385;-73
2022/07/14 10:18:02;;;;;;;7.72;2.97;;;;;;;22.62;69.32;99478.13;5103716;27;20036;-72
2022/07/14 10:20:30;;;;;;;5.80;2.97;;;;;;;22.63;68.64;99476.22;5099459;28;20040;-73
2022/07/14 10:22:58;;;;;;;5.78;3.15;;;;;;;22.62;67.40;99485.50;5103685;28;20493;-73
2022/07/14 10:25:25;;;;;;;6.82;3.00;;;;;;;22.66;67.53;99481.38;5101772;28;20432;-73
2022/07/14 10:27:54;;;;;;;6.07;3.20;;;;;;;22.65;66.04;99482.44;5103370;28;20486;-72
2022/07/14 10:30:31;;;;;;;6.18;3.13;;;;;;;22.60;65.53;99476.56;5103612;28;20051;-73
2022/07/14 10:33:04;;;;;;;6.35;3.22;;;;;;;22.54;66.30;99476.22;5103500;28;20051;-72
2022/07/14 10:35:45;;;;;;;4.95;2.90;;;;;;;22.55;65.43;99472.44;5099369;28;20475;-73
2022/07/14 10:38:37;;;;;;;10.05;3.10;;;;;;;22.60;67.38;99473.81;5099853;28;20497;-73
2022/07/14 10:41:10;;;;;;;6.43;3.30;;;;;;;22.62;66.99;99472.59;5104641;28;20446;-73
2022/07/14 10:43:59;;;;;;;6.10;2.90;;;;;;;22.78;65.08;99479.13;5102949;28;20043;-73
2022/07/14 10:46:37;;;;;;;7.28;3.20;;;;;;;22.85;63.98;99472.75;5105084;28;20393;-73
2022/07/14 10:49:06;;;;;;;4.90;2.80;;;;;;;22.89;64.03;99478.75;5103991;28;20051;-73
2022/07/14 10:51:33;;;;;;;7.57;3.13;;;;;;;22.97;64.59;99470.47;5102000;28;20047;-74
2022/07/14 10:54:06;;;;;;;7.30;2.85;;;;;;;23.00;64.60;99472.00;5102601;28;20407;-73
2022/07/14 10:56:34;;;;;;;7.47;3.20;;;;;;;23.06;63.25;99484.22;5099910;28;20040;-73
2022/07/14 10:59:34;;;;;;;5.20;2.92;;;;;;;23.06;63.54;99470.44;5105235;28;20040;-72
2022/07/14 11:02:37;;;;;;;7.78;3.40;;;;;;;23.06;64.47;99479.59;5099886;28;20428;-73
2022/07/14 11:05:17;;;;;;;7.22;3.28;;;;;;;22.99;64.26;99479.44;5103209;28;20477;-72
2022/07/14 11:07:48;;;;;;;32.45;4.25;;;;;;;22.94;64.25;99473.59;5106200;28;20127;-72
2022/07/14 11:11:09;;;;;;;5.50;3.00;;;;;;;22.97;65.20;99492.50;5105510;28;20047;-72
2022/07/14 11:14:07;;;;;;;8.27;3.38;;;;;;;22.89;65.62;99484.28;5104468;28;20052;-72
2022/07/14 11:17:00;;;;;;;6.53;3.42;;;;;;;23.00;63.77;99470.13;5104595;28;20062;-72
2022/07/14 11:19:32;;;;;;;6.90;3.50;;;;;;;23.05;65.18;99474.25;5103831;28;20047;-72
2022/07/14 11:22:13;;;;;;;7.57;3.50;;;;;;;23.09;65.23;99475.59;5106796;28;20054;-73
2022/07/14 11:24:54;;;;;;;5.95;3.30;;;;;;;23.18;64.55;99479.19;5107191;28;20039;-72
2022/07/14 11:27:38;;;;;;;8.88;3.30;;;;;;;23.29;63.11;99465.94;5105914;28;20036;-74
2022/07/14 11:30:20;;;;;;;8.68;3.60;;;;;;;23.32;62.63;99467.44;5106964;28;20067;-73
2022/07/14 11:33:03;;;;;;;13.88;3.58;;;;;;;23.48;60.96;99482.22;5104703;28;20043;-73
2022/07/14 11:38:36;;;;;;;4.93;3.03;;;;;;;23.52;58.83;99473.38;5107444;28;20044;-73
2022/07/14 11:41:09;;;;;;;6.55;3.75;;;;;;;23.48;58.89;99490.47;5113560;28;20044;-72
2022/07/14 11:43:50;;;;;;;6.95;3.25;;;;;;;23.39;59.31;99475.88;5108627;28;20047;-73
2022/07/14 11:46:21;;;;;;;10.15;3.53;;;;;;;23.39;60.11;99479.47;5107316;28;20036;-73
2022/07/14 11:48:53;;;;;;;13.50;3.60;;;;;;;23.42;59.62;99476.34;5104707;28;20040;-72